Ixtapa Zihuatanejo International Airport


Codes: MMZH/ZIH
Name: Ixtapa Zihuatanejo International Airport
City: Ixtapa
Country: Mexico
Elevation: 26 ft.
Wikipedia:

Photos at Ixtapa Zihuatanejo International Airport


   Photos courtesy of SpottingLog. You can add your own sightings and photos by signing up for a free trial today.



No photos found.

Weather at Ixtapa Zihuatanejo International Airport


Time (UTC)DescriptionTempratureWindCloud coverageVisibilityPressureHumidity
16-Jun-2024 00:00Light Rain29°C4 mph, SW68%10000m1006hPa78%
16-Jun-2024 03:00Light Rain28°C2 mph, SW49%10000m1006hPa81%
16-Jun-2024 06:00Light Rain28°C4 mph, NW34%10000m1007hPa84%
16-Jun-2024 09:00Light Rain27°C7 mph, NW38%10000m1007hPa87%
16-Jun-2024 12:00Few Clouds27°C4 mph, NW21%10000m1007hPa85%
16-Jun-2024 15:00Clear Sky30°C7 mph, W1%10000m1008hPa71%
16-Jun-2024 18:00Clear Sky30°C9 mph, SW3%10000m1007hPa70%
16-Jun-2024 21:00Few Clouds30°C11 mph, W18%10000m1004hPa71%
17-Jun-2024 00:00Light Rain28°C9 mph, W47%10000m1004hPa81%
17-Jun-2024 03:00Light Rain27°C7 mph, NW90%10000m1007hPa83%
17-Jun-2024 06:00Light Rain27°C7 mph, NW93%10000m1008hPa83%
17-Jun-2024 09:00Light Rain27°C9 mph, NW100%10000m1006hPa84%
17-Jun-2024 12:00Overcast Clouds26°C7 mph, NW100%10000m1005hPa83%
17-Jun-2024 15:00Overcast Clouds29°C7 mph, W100%10000m1007hPa70%
17-Jun-2024 18:00Overcast Clouds30°C11 mph, W99%10000m1006hPa69%
17-Jun-2024 21:00Light Rain29°C11 mph, W100%10000m1005hPa71%
18-Jun-2024 00:00Light Rain28°C9 mph, W100%10000m1005hPa72%
18-Jun-2024 03:00Light Rain27°C7 mph, NW99%10000m1007hPa84%
18-Jun-2024 06:00Light Rain26°C7 mph, NW100%10000m1008hPa84%
18-Jun-2024 09:00Light Rain26°C7 mph, NW96%10000m1007hPa83%
18-Jun-2024 12:00Light Rain25°C4 mph, N90%10000m1006hPa82%
18-Jun-2024 15:00Light Rain29°C7 mph, NW52%10000m1007hPa71%
18-Jun-2024 18:00Light Rain30°C13 mph, W42%10000m1006hPa69%
18-Jun-2024 21:00Scattered Clouds29°C13 mph, W32%10000m1004hPa71%
19-Jun-2024 00:00Light Rain27°C11 mph, W50%10000m1004hPa80%
19-Jun-2024 03:00Light Rain27°C9 mph, W99%10000m1006hPa81%
19-Jun-2024 06:00Light Rain26°C9 mph, NW86%10000m1008hPa81%
19-Jun-2024 09:00Light Rain26°C7 mph, NW98%10000m1007hPa83%
19-Jun-2024 12:00Light Rain25°C4 mph, N99%10000m1006hPa82%
19-Jun-2024 15:00Light Rain28°C7 mph, NW100%10000m1006hPa75%
19-Jun-2024 18:00Light Rain29°C11 mph, W96%10000m1005hPa72%
19-Jun-2024 21:00Light Rain28°C11 mph, W51%10000m1003hPa75%
20-Jun-2024 00:00Light Rain27°C7 mph, W77%10000m1003hPa82%
20-Jun-2024 03:00Light Rain26°C7 mph, W100%10000m1004hPa84%
20-Jun-2024 06:00Light Rain26°C0 mph, E100%10000m1006hPa84%
20-Jun-2024 09:00Light Rain26°C2 mph, N100%10000m1004hPa85%
20-Jun-2024 12:00Overcast Clouds26°C2 mph, NE100%10000m1004hPa85%
20-Jun-2024 15:00Overcast Clouds27°C2 mph, E100%10000m1005hPa80%
20-Jun-2024 18:00Overcast Clouds30°C7 mph, SW100%10000m1004hPa69%
20-Jun-2024 21:00Overcast Clouds29°C7 mph, SW100%10000m1003hPa74%